unreel.me alexa rank chart, unreel.me alexa rank daily changes

unreel.me alexa rank chart, unreel.me alexa rank daily changes

unreel.me
Actual rank:
638 819

RANK HISTORY

Date Rank Diff
2018/07/18 638 819 +150 344
2018/07/16 488 475 -114 444
2018/07/14 602 919 -70 107
2018/07/13 673 026 +174 510
2018/07/12 498 516 -258 116
2018/07/03 756 632 +476 442
2018/07/01 280 190 -12 124
2018/06/30 292 314 -208 187
2018/06/29 500 501 -117 756
2018/06/28 618 257 +280 191
2018/06/27 338 066 +44 019
2018/06/26 294 047 +32 453
2018/06/25 261 594 -38 998
2018/06/24 300 592 -36 607
2018/06/23 337 199 +20 969
2018/06/22 316 230 -19 795
2018/06/21 336 025 +6 467
2018/06/20 329 558 +15 150
2018/06/18 314 408 +156 324
2018/06/17 158 084 -27 123
2018/06/16 185 207 -121 023
2018/06/15 306 230 -258 996
2018/06/14 565 226 +171 996
2018/06/13 393 230 -4 586
2018/06/11 397 816 -205 641
2018/06/10 603 457 +297 671
2018/06/09 305 786 +185 494
2018/06/08 120 292 -182 506
2018/06/07 302 798 -306 816
2018/06/05 609 614 +226 626
2018/06/03 382 988 +41 063
2018/06/02 341 925 +150 313
2018/06/01 191 612 +73 486
2018/05/31 118 126 -485 272
2018/05/30 603 398 +320 881
2018/05/27 282 517 +61 924
2018/05/26 220 593 -176 273
2018/05/25 396 866 -133 312
2018/05/24 530 178 +309 275
2018/05/23 220 903 -452 969
2018/05/22 673 872 +76 117
2018/05/20 597 755 +196 531
2018/05/19 401 224

WIDGET FOR YOUR SITE

DOMAINS WITH THE NEAREST RANK

Domain Rank
unitedwoundhealing.com 638 814
unityinfluence.com 638 815
unixathome.org 638 816
unleashtheunstoppable.com 638 817
unlockdb.net 638 818
unreel.me 638 819
unscrewedtheater.org 638 820
upbeatmusic.com 638 821
upgrademyrituals.com 638 822
uphp.com 638 823
uplandgameadventures.com 638 824

DOMAINS WITH THE NEAREST RANK BY TLD .me

Domain Rank
choy.me 635 235
hebb.me 636 305
pantydrop.me 637 520
plumz.me 637 642
ripenear.me 637 898
unreel.me 638 819
wethersfield.me 639 026
where2go.me 639 335
fileboom.me 639 459
humankinetics.me 639 545
filmebi.me 639 658